Marcos Paz, Argentina
Current Conditions -  °F | °C
As of 12:00 PM on Friday 28 Nov 2014 (Local Time) from SAEZ Reporting Station
Clear Clear  
Wind Chill: 81°   Ceiling: Unl
Heat Index: 81°   Visibility: 6mi
Dew Point: 45°   Wind: 16mph
Humidity: 28%   Direction: 50°NE
Pressure: 30"   Gusts: NA
Location:  34.77°S, 58.83°W
Report Text: SAEZ 281500Z 05014KT 360V070 CAVOK 27/07 Q1016
Loading
Personal Weather Stations






























Interactive Weather Map New forecast layout! Learn more

10-Day Weather Forecast

Advertisements
Track Severe Weather on mobile